Quail, Texas
Current Conditions -  °F | °C
As of 6:53 AM on Friday 19 Dec 2014 (Local Time) from KCDS Reporting Station
Light Rain Light Rain  
Wind Chill: 35°   Ceiling: 500
Heat Index: 40°   Visibility: 9mi
Dew Point: 38°   Wind: 7mph
Humidity: 93%   Direction: 130°SE
Pressure: 30.19"   Gusts: NA
Location:  34.91°N, 100.4°W
Report Text: KCDS 191253Z AUTO 13006KT 9SM -RA BKN005 OVC019 04/03 A3019 RMK AO2 CIG 004V009 SLP226 P0001 T00440033
Loading
Personal Weather Stations






























Interactive Weather Map New forecast layout! Learn more

10-Day Weather Forecast

Advertisements
Track Severe Weather on mobile